Time;durP1;ratioP1;P1;durP2;ratioP2;P2;SDS_P1;SDS_P2;PMS_P1;PMS_P2;Temp;Humidity;BMP_temperature;BMP_pressure;BME280_temperature;BME280_humidity;BME280_pressure;Samples;Min_cycle;Max_cycle;Signal;HPM_P1;HPM_P2
2022/05/08 00:01:54;;;;;;;20.02;14.50;;;;;;;9.50;100.00;163049.28;4984672;28;20055;-56
2022/05/08 00:04:20;;;;;;;25.42;12.85;;;;;;;9.48;100.00;163042.53;4987773;28;20078;-56
2022/05/08 00:06:45;;;;;;;21.92;13.65;;;;;;;9.48;100.00;163043.91;4970539;28;20534;-56
2022/05/08 00:09:10;;;;;;;21.45;13.45;;;;;;;9.49;100.00;163046.56;4972145;28;20043;-56
2022/05/08 00:11:35;;;;;;;18.02;13.98;;;;;;;9.46;100.00;163038.50;4986774;28;20050;-56
2022/05/08 00:14:01;;;;;;;24.35;14.82;;;;;;;9.48;100.00;163043.91;4991429;28;20486;-56
2022/05/08 00:16:26;;;;;;;35.85;16.02;;;;;;;9.45;100.00;163035.81;4981936;28;20042;-56
2022/05/08 00:18:52;;;;;;;26.25;16.50;;;;;;;9.45;100.00;163035.81;4977159;28;20031;-56
2022/05/08 00:21:17;;;;;;;15.70;12.38;;;;;;;9.39;100.00;163018.25;4970968;28;20038;-56
2022/05/08 00:23:42;;;;;;;20.45;14.27;;;;;;;9.43;100.00;163030.38;4974821;28;20104;-56
2022/05/08 00:26:08;;;;;;;21.80;16.20;;;;;;;9.35;100.00;163010.19;4974390;28;20410;-56
2022/05/08 00:28:35;;;;;;;22.77;13.90;;;;;;;9.33;100.00;163003.44;4975733;28;20026;-56
2022/05/08 00:31:01;;;;;;;30.42;15.07;;;;;;;9.30;100.00;162995.34;4974089;28;20121;-56
2022/05/08 00:33:26;;;;;;;26.60;15.88;;;;;;;9.28;100.00;162991.31;4975698;28;20077;-56
2022/05/08 00:35:51;;;;;;;24.45;15.55;;;;;;;9.29;100.00;162992.63;4975268;28;20031;-56
2022/05/08 00:38:17;;;;;;;22.35;14.57;;;;;;;9.25;100.00;162981.84;4989133;28;20470;-56
2022/05/08 00:40:42;;;;;;;16.55;13.00;;;;;;;9.15;100.00;162957.56;4974087;28;20038;-56
2022/05/08 00:43:44;;;;;;;26.48;14.48;;;;;;;9.08;100.00;162938.69;4975561;28;20027;-56
2022/05/08 00:46:11;;;;;;;20.95;13.27;;;;;;;9.06;100.00;162933.28;4979808;28;20039;-56
2022/05/08 00:48:38;;;;;;;24.63;15.70;;;;;;;9.07;100.00;162936.00;4975280;28;20026;-57
2022/05/08 00:51:11;;;;;;;32.80;15.88;;;;;;;9.07;100.00;162936.00;4974132;28;20043;-56
2022/05/08 00:53:38;;;;;;;28.77;16.58;;;;;;;9.07;100.00;162936.00;4974860;28;20066;-57
2022/05/08 00:56:06;;;;;;;25.25;14.38;;;;;;;8.99;100.00;162915.78;4973763;28;20038;-57
2022/05/08 00:58:34;;;;;;;27.13;16.73;;;;;;;8.96;100.00;162907.69;4974943;28;20073;-57
2022/05/08 01:01:00;;;;;;;18.42;11.38;;;;;;;9.01;100.00;162919.81;4976666;28;20065;-57
2022/05/08 01:03:25;;;;;;;26.48;13.77;;;;;;;8.95;100.00;162904.97;4994363;28;20505;-57
2022/05/08 01:05:53;;;;;;;26.88;14.20;;;;;;;8.97;100.00;162909.06;4989680;28;20414;-57
2022/05/08 01:08:20;;;;;;;27.40;17.60;;;;;;;8.94;100.00;162902.28;4974666;28;20031;-56
2022/05/08 01:10:46;;;;;;;30.08;14.00;;;;;;;8.89;100.00;162888.81;4973578;28;20122;-57
2022/05/08 01:13:12;;;;;;;33.53;17.50;;;;;;;8.82;100.00;162871.31;4974704;28;20035;-57
2022/05/08 01:15:42;;;;;;;30.77;14.40;;;;;;;8.79;100.00;162863.19;4972910;28;20442;-57
2022/05/08 01:18:08;;;;;;;28.92;14.85;;;;;;;8.80;100.00;162865.91;4974739;28;20158;-57
2022/05/08 01:20:34;;;;;;;39.55;16.17;;;;;;;8.83;100.00;162873.94;4973470;28;20056;-57
2022/05/08 01:23:02;;;;;;;25.08;13.20;;;;;;;8.82;100.00;162869.94;4974424;28;20737;-57
2022/05/08 01:25:27;;;;;;;23.30;12.57;;;;;;;8.82;100.00;162871.31;4973073;28;20035;-57
2022/05/08 01:27:52;;;;;;;21.05;13.95;;;;;;;8.71;100.00;162841.63;4981010;28;20046;-56
2022/05/08 01:30:18;;;;;;;25.73;14.10;;;;;;;8.63;100.00;162821.41;4993780;28;20037;-57
2022/05/08 01:32:44;;;;;;;43.85;16.17;;;;;;;8.60;100.00;162811.97;4992089;28;20391;-57
2022/05/08 01:35:09;;;;;;;22.35;11.63;;;;;;;8.54;100.00;162797.16;4977769;28;20410;-57
2022/05/08 01:37:34;;;;;;;31.05;12.27;;;;;;;8.50;100.00;162787.72;4973675;28;20123;-58
2022/05/08 01:40:00;;;;;;;25.00;11.80;;;;;;;8.48;100.00;162780.97;4974436;28;20049;-57
2022/05/08 01:42:27;;;;;;;28.02;10.88;;;;;;;8.47;100.00;162779.59;4986486;28;20050;-57
2022/05/08 01:44:52;;;;;;;25.15;9.10;;;;;;;8.38;100.00;162756.66;4977747;28;20027;-57
2022/05/08 01:50:01;;;;;;;24.67;11.23;;;;;;;8.32;100.00;162740.47;4974601;28;20461;-57
2022/05/08 01:52:27;;;;;;;25.40;9.90;;;;;;;8.28;100.00;162728.34;4972405;28;20039;-57
2022/05/08 01:54:53;;;;;;;23.80;8.10;;;;;;;8.23;100.00;162717.53;4974209;28;20470;-56
2022/05/08 01:57:18;;;;;;;29.73;9.50;;;;;;;8.22;100.00;162713.50;4975376;28;20043;-56
2022/05/08 01:59:43;;;;;;;24.42;10.73;;;;;;;8.19;100.00;162706.78;4979476;28;20085;-56
2022/05/08 02:02:09;;;;;;;23.38;9.77;;;;;;;8.16;100.00;162698.66;4991006;28;20088;-56
2022/05/08 02:04:34;;;;;;;32.20;8.93;;;;;;;8.11;100.00;162685.19;4993154;28;20050;-56
2022/05/08 02:07:00;;;;;;;24.45;6.57;;;;;;;8.07;100.00;162674.44;4991478;28;20053;-56
2022/05/08 02:09:25;;;;;;;24.27;7.95;;;;;;;8.05;100.00;162669.03;4986189;28;20027;-56
2022/05/08 02:11:50;;;;;;;20.65;7.97;;;;;;;8.05;100.00;162669.03;4977653;28;20045;-56
2022/05/08 02:14:16;;;;;;;29.30;8.80;;;;;;;8.01;100.00;162658.22;4992993;28;20018;-56
2022/05/08 02:16:42;;;;;;;29.50;6.82;;;;;;;7.97;100.00;162648.81;4991249;28;20073;-56
2022/05/08 02:19:07;;;;;;;22.55;8.25;;;;;;;7.92;100.00;162635.34;4992971;28;20030;-56
2022/05/08 02:21:32;;;;;;;23.90;7.75;;;;;;;7.90;100.00;162629.94;4991188;28;20039;-56
2022/05/08 02:23:58;;;;;;;32.92;8.57;;;;;;;7.86;100.00;162619.19;4981480;28;20085;-56
2022/05/08 02:26:23;;;;;;;35.63;10.30;;;;;;;7.80;100.00;162604.34;4980591;28;20097;-57
2022/05/08 02:28:48;;;;;;;43.70;9.65;;;;;;;7.81;100.00;162607.06;4986294;28;20035;-56
2022/05/08 02:31:14;;;;;;;43.97;10.65;;;;;;;7.78;100.00;162600.31;4972003;28;20039;-56
2022/05/08 02:33:40;;;;;;;30.75;10.98;;;;;;;7.78;100.00;162600.31;4973457;28;20023;-57
2022/05/08 02:36:06;;;;;;;27.45;7.28;;;;;;;7.77;100.00;162597.63;4971851;28;20046;-57
2022/05/08 02:38:33;;;;;;;30.85;8.88;;;;;;;7.80;100.00;162603.03;4973286;28;20029;-57
2022/05/08 02:40:58;;;;;;;28.38;6.47;;;;;;;7.79;100.00;162601.66;4983159;28;20409;-57
2022/05/08 02:43:23;;;;;;;30.65;7.95;;;;;;;7.80;100.00;162604.34;4992394;28;20034;-57
2022/05/08 02:45:49;;;;;;;29.30;7.88;;;;;;;7.80;100.00;162604.34;4990563;28;20494;-57
2022/05/08 02:48:14;;;;;;;34.80;9.75;;;;;;;7.76;100.00;162594.91;4992816;28;20121;-57
2022/05/08 02:50:39;;;;;;;32.22;7.88;;;;;;;7.74;100.00;162588.19;4976926;28;20051;-58
2022/05/08 02:53:05;;;;;;;22.85;9.48;;;;;;;7.73;100.00;162585.47;4973082;28;20034;-57
2022/05/08 02:58:32;;;;;;;23.80;7.15;;;;;;;7.67;100.00;162569.31;4991803;28;20073;-57
2022/05/08 03:00:59;;;;;;;35.85;8.77;;;;;;;7.66;100.00;162566.63;4990252;28;20038;-57
2022/05/08 03:03:25;;;;;;;32.90;10.15;;;;;;;7.61;100.00;162555.88;4990516;28;20065;-57
2022/05/08 03:05:50;;;;;;;19.13;6.90;;;;;;;7.63;100.00;162559.91;4970740;28;20470;-57
2022/05/08 03:08:17;;;;;;;19.95;8.55;;;;;;;7.56;100.00;162542.38;4972718;28;20031;-57
2022/05/08 03:13:29;;;;;;;27.50;9.18;;;;;;;7.47;100.00;162518.16;4972525;28;20086;-57
2022/05/08 03:15:54;;;;;;;23.10;8.20;;;;;;;7.42;100.00;162504.66;4984958;28;20038;-57
2022/05/08 03:18:19;;;;;;;36.83;9.20;;;;;;;7.35;100.00;162487.16;4974195;28;20030;-57
2022/05/08 03:20:45;;;;;;;24.95;8.50;;;;;;;7.28;100.00;162468.31;4989963;28;20461;-57
2022/05/08 03:23:10;;;;;;;26.77;7.53;;;;;;;7.23;100.00;162456.19;4987906;28;20029;-57
2022/05/08 03:25:36;;;;;;;28.42;8.70;;;;;;;7.19;100.00;162445.38;4971009;28;20049;-58
2022/05/08 03:28:02;;;;;;;22.08;7.32;;;;;;;7.17;100.00;162440.03;4972407;28;20042;-57
2022/05/08 03:30:28;;;;;;;20.77;8.00;;;;;;;7.13;100.00;162429.22;4970993;28;20053;-57
2022/05/08 03:32:53;;;;;;;37.72;8.65;;;;;;;7.10;100.00;162422.50;4991535;28;20489;-57
2022/05/08 03:35:19;;;;;;;19.35;8.07;;;;;;;7.06;100.00;162410.38;4991646;28;20030;-57
2022/05/08 03:37:44;;;;;;;34.25;8.77;;;;;;;7.03;100.00;162402.31;4981444;28;20046;-57
2022/05/08 03:40:10;;;;;;;33.20;10.18;;;;;;;6.82;100.00;162348.41;4983919;28;20045;-57
2022/05/08 03:42:35;;;;;;;24.13;9.68;;;;;;;6.93;100.00;162378.06;4989826;28;20046;-57
2022/05/08 03:45:01;;;;;;;34.33;9.55;;;;;;;6.92;100.00;162375.38;4980137;28;20023;-57
2022/05/08 03:47:26;;;;;;;29.48;11.18;;;;;;;6.88;100.00;162363.25;4970966;28;20050;-57
2022/05/08 03:49:51;;;;;;;27.58;9.55;;;;;;;6.85;100.00;162355.19;4971897;28;20031;-56
2022/05/08 03:52:17;;;;;;;39.15;10.57;;;;;;;6.81;100.00;162345.78;4970940;28;20491;-56
2022/05/08 03:54:42;;;;;;;31.73;10.52;;;;;;;6.77;100.00;162334.97;4987458;28;20029;-57
2022/05/08 03:57:07;;;;;;;28.23;8.07;;;;;;;6.73;100.00;162324.22;4978667;28;20054;-57
2022/05/08 03:59:33;;;;;;;35.40;8.98;;;;;;;6.69;100.00;162313.44;4976101;28;20026;-57
2022/05/08 04:01:58;;;;;;;37.13;9.85;;;;;;;6.67;100.00;162310.72;4974828;28;20039;-57
2022/05/08 04:04:23;;;;;;;23.20;8.55;;;;;;;6.64;100.00;162302.69;4988742;28;20506;-57
2022/05/08 04:06:49;;;;;;;21.00;7.50;;;;;;;6.62;100.00;162297.28;4993763;28;20065;-57
2022/05/08 04:09:16;;;;;;;32.17;9.00;;;;;;;6.62;100.00;162297.28;4993984;28;20093;-57
2022/05/08 04:11:41;;;;;;;35.55;10.27;;;;;;;6.62;100.00;162295.94;4993413;28;20046;-57
2022/05/08 04:14:07;;;;;;;38.75;11.05;;;;;;;6.60;100.00;162291.88;4995675;28;20607;-57
2022/05/08 04:16:32;;;;;;;27.75;9.13;;;;;;;6.61;100.00;162294.56;4993690;28;20038;-57
2022/05/08 04:18:57;;;;;;;38.10;15.98;;;;;;;6.61;100.00;162294.56;4986868;28;20023;-57
2022/05/08 04:21:23;;;;;;;30.88;10.52;;;;;;;6.62;100.00;162297.28;4974523;28;20050;-57
2022/05/08 04:26:33;;;;;;;37.28;10.43;;;;;;;6.66;100.00;162306.69;4993088;28;20085;-57
2022/05/08 04:29:00;;;;;;;38.20;10.10;;;;;;;6.65;100.00;162304.00;4995483;28;20034;-57
2022/05/08 04:31:25;;;;;;;31.23;10.27;;;;;;;6.61;100.00;162293.25;4993730;28;20042;-58
2022/05/08 04:33:50;;;;;;;42.67;12.10;;;;;;;6.60;100.00;162290.56;4994645;28;20037;-57
2022/05/08 04:36:16;;;;;;;38.67;13.23;;;;;;;6.60;100.00;162290.56;4993508;28;20445;-57
2022/05/08 04:38:42;;;;;;;28.30;9.60;;;;;;;6.57;100.00;162283.81;4989175;28;20026;-56
2022/05/08 04:41:07;;;;;;;42.00;12.38;;;;;;;6.60;100.00;162291.88;4990877;28;20042;-56
2022/05/08 04:43:32;;;;;;;35.67;11.20;;;;;;;6.62;100.00;162297.28;4983523;28;20035;-56
2022/05/08 04:45:58;;;;;;;34.15;12.07;;;;;;;6.66;100.00;162308.03;4973966;28;20510;-57
2022/05/08 04:48:23;;;;;;;21.92;10.88;;;;;;;6.71;100.00;162318.81;4978864;28;20394;-56
2022/05/08 04:50:49;;;;;;;30.92;12.15;;;;;;;6.73;100.00;162324.22;4973763;28;20521;-56
2022/05/08 04:53:14;;;;;;;35.40;12.10;;;;;;;6.75;100.00;162330.94;4986645;28;20124;-56
2022/05/08 04:55:39;;;;;;;34.97;12.80;;;;;;;6.80;100.00;162344.41;4977532;28;20046;-56
2022/05/08 04:58:05;;;;;;;29.23;10.90;;;;;;;6.82;100.00;162349.78;4975376;28;20019;-56
2022/05/08 05:00:30;;;;;;;25.52;8.82;;;;;;;6.91;100.00;162372.66;4973197;28;20042;-56
2022/05/08 05:02:55;;;;;;;28.92;10.93;;;;;;;6.88;100.00;162364.63;4982505;28;20030;-56
2022/05/08 05:05:21;;;;;;;20.38;9.43;;;;;;;6.95;100.00;162382.09;4992326;28;20033;-55
2022/05/08 05:07:46;;;;;;;35.38;9.43;;;;;;;7.04;100.00;162404.97;4976836;28;20398;-56
2022/05/08 05:10:13;;;;;;;33.53;12.50;;;;;;;7.07;100.00;162414.44;4993930;28;20022;-56
2022/05/08 05:12:39;;;;;;;26.35;10.18;;;;;;;7.12;100.00;162427.91;4986042;28;20046;-56
2022/05/08 05:15:06;;;;;;;25.00;8.70;;;;;;;7.19;100.00;162445.38;4986221;28;20038;-56
2022/05/08 05:17:32;;;;;;;34.38;11.52;;;;;;;7.24;100.00;162457.50;4991928;28;20043;-56
2022/05/08 05:19:57;;;;;;;34.17;9.27;;;;;;;7.25;100.00;162461.59;4983291;28;20038;-57
2022/05/08 05:22:23;;;;;;;36.47;11.73;;;;;;;7.26;100.00;162462.91;4981497;28;20046;-58
2022/05/08 05:24:49;;;;;;;28.70;9.90;;;;;;;7.33;100.00;162480.44;4993460;28;20034;-57
2022/05/08 05:27:14;;;;;;;26.48;10.60;;;;;;;7.38;100.00;162495.22;4990756;28;20053;-57
2022/05/08 05:29:39;;;;;;;48.08;13.15;;;;;;;7.49;100.00;162523.50;4974539;28;20061;-57
2022/05/08 05:32:05;;;;;;;27.40;9.68;;;;;;;7.58;100.00;162547.75;4973683;28;20039;-57
2022/05/08 05:34:30;;;;;;;38.58;13.70;;;;;;;7.65;100.00;162565.31;4973007;28;20045;-57
2022/05/08 05:36:56;;;;;;;35.22;9.63;;;;;;;7.72;100.00;162584.16;4990717;28;20520;-57
2022/05/08 05:39:24;;;;;;;42.38;12.30;;;;;;;7.81;100.00;162607.06;4987052;28;20420;-57
2022/05/08 05:41:49;;;;;;;23.98;10.57;;;;;;;7.88;100.00;162625.91;4988764;28;20038;-57
2022/05/08 05:44:15;;;;;;;32.05;8.45;;;;;;;7.92;100.00;162636.72;4992895;28;20037;-57
2022/05/08 05:49:27;;;;;;;25.25;8.82;;;;;;;8.05;100.00;162670.38;4972585;28;20078;-57
2022/05/08 05:51:52;;;;;;;25.80;8.47;;;;;;;8.14;100.00;162693.31;4972496;28;20094;-57
2022/05/08 05:54:21;;;;;;;24.48;10.23;;;;;;;8.20;100.00;162708.09;4974843;28;20034;-57
2022/05/08 05:56:46;;;;;;;;;;;;;;;8.28;100.00;162728.34;4980816;28;20042;-57
2022/05/08 05:59:11;;;;;;;14.77;6.97;;;;;;;8.33;100.00;162741.81;4993142;28;19913;-57
2022/05/08 06:01:37;;;;;;;29.95;8.63;;;;;;;8.46;100.00;162776.84;4976554;28;20100;-57
2022/05/08 06:04:02;;;;;;;24.13;7.28;;;;;;;8.54;100.00;162798.47;4990213;28;20046;-57
2022/05/08 06:06:27;;;;;;;18.95;7.15;;;;;;;8.61;100.00;162814.63;4981928;28;20042;-57
2022/05/08 06:08:53;;;;;;;20.58;5.97;;;;;;;8.68;100.00;162834.88;4973524;28;20026;-57
2022/05/08 06:11:18;;;;;;;23.50;8.20;;;;;;;8.81;100.00;162868.59;4970942;28;20043;-57
2022/05/08 06:13:43;;;;;;;18.38;5.78;;;;;;;8.87;100.00;162884.78;4981081;28;20023;-57
2022/05/08 06:16:09;;;;;;;48.65;9.68;;;;;;;9.00;100.00;162917.13;4989492;28;20050;-57
2022/05/08 06:18:34;;;;;;;17.00;5.03;;;;;;;9.09;100.00;162940.03;4987358;28;20058;-57
2022/05/08 06:20:59;;;;;;;24.92;6.07;;;;;;;9.18;100.00;162965.69;4981709;28;20104;-56
2022/05/08 06:23:25;;;;;;;16.27;5.10;;;;;;;9.35;100.00;163008.81;4986119;28;20479;-56
2022/05/08 06:25:50;;;;;;;20.98;6.60;;;;;;;9.44;100.00;163033.09;4970092;28;20038;-56
2022/05/08 06:28:19;;;;;;;20.13;6.82;;;;;;;9.52;100.00;163054.69;4973294;28;20027;-57
2022/05/08 06:30:44;;;;;;;;;;;;;;;9.53;100.00;163057.38;4972203;28;20630;-57
2022/05/08 06:33:10;;;;;;;15.43;5.60;;;;;;;9.65;100.00;163087.03;4971672;28;19923;-57
2022/05/08 06:35:41;;;;;;;13.65;4.80;;;;;;;9.63;100.00;163081.69;4971651;28;20386;-57
2022/05/08 06:38:16;;;;;;;17.65;5.03;;;;;;;9.76;100.00;163116.75;4992205;28;20023;-57
2022/05/08 06:40:43;;;;;;;21.25;6.07;;;;;;;9.95;100.00;163165.28;4987280;28;20030;-57
2022/05/08 06:43:09;;;;;;;20.40;4.32;;;;;;;10.28;100.00;163251.66;4985518;28;20021;-57
2022/05/08 06:45:35;;;;;;;21.77;4.50;;;;;;;10.80;100.00;163388.03;4973181;28;20034;-57
2022/05/08 06:48:00;;;;;;;15.43;4.22;;;;;;;11.72;100.00;163629.78;4972439;28;20031;-57
2022/05/08 06:50:26;;;;;;;21.17;5.30;;;;;;;12.92;100.00;163943.28;4990636;28;20510;-54
2022/05/08 06:52:51;;;;;;;12.35;4.80;;;;;;;13.75;100.00;164159.66;4991312;28;20020;-57
2022/05/08 06:55:16;;;;;;;12.32;4.95;;;;;;;14.40;100.00;164330.13;4982588;28;20022;-56
2022/05/08 06:57:42;;;;;;;13.00;3.97;;;;;;;14.77;100.00;164427.59;4979344;28;20034;-56
2022/05/08 07:02:52;;;;;;;10.88;4.13;;;;;;;14.94;100.00;164470.88;4978659;28;20821;-55
2022/05/08 07:05:18;;;;;;;15.40;5.38;;;;;;;15.14;100.00;164525.03;4978356;28;20050;-56
2022/05/08 07:07:44;;;;;;;11.93;3.30;;;;;;;15.34;100.00;164577.78;4976952;28;20047;-56
2022/05/08 07:10:10;;;;;;;13.90;4.70;;;;;;;15.13;100.00;164522.31;4975281;28;20027;-56
2022/05/08 07:12:36;;;;;;;18.85;7.30;;;;;;;15.26;100.00;164556.19;4971419;28;20039;-56
2022/05/08 07:15:04;;;;;;;14.25;4.32;;;;;;;14.76;100.00;164424.88;4972052;28;20456;-56
2022/05/08 07:17:29;;;;;;;13.05;4.45;;;;;;;14.47;100.00;164349.06;4968948;28;20455;-56
2022/05/08 07:19:55;;;;;;;13.55;4.35;;;;;;;13.66;100.00;164135.34;4983968;28;20030;-56
2022/05/08 07:22:21;;;;;;;9.05;3.50;;;;;;;13.65;100.00;164133.97;4985576;28;20629;-56
2022/05/08 07:24:47;;;;;;;17.27;3.35;;;;;;;13.54;100.00;164105.56;4989323;28;20034;-56
2022/05/08 07:27:12;;;;;;;11.95;3.13;;;;;;;13.70;100.00;164146.16;4988667;28;20053;-56
2022/05/08 07:29:41;;;;;;;13.95;4.43;;;;;;;13.39;100.00;164065.00;4981064;28;20367;-56
2022/05/08 07:32:06;;;;;;;16.42;3.80;;;;;;;13.06;100.00;163979.78;4969203;28;20057;-56
2022/05/08 07:37:15;;;;;;;8.98;3.95;;;;;;;12.96;100.00;163954.13;4987000;28;20065;-56
2022/05/08 07:39:41;;;;;;;19.98;5.55;;;;;;;12.72;100.00;163889.22;4986405;28;20023;-56
2022/05/08 07:42:06;;;;;;;11.85;4.70;;;;;;;12.72;100.00;163889.22;4984924;28;20053;-56
2022/05/08 07:44:31;;;;;;;18.60;5.82;;;;;;;12.26;100.00;163770.28;4985802;28;20029;-56
2022/05/08 07:46:57;;;;;;;10.57;3.72;;;;;;;12.20;100.00;163754.09;4982568;28;20050;-56
2022/05/08 07:49:22;;;;;;;13.48;5.10;;;;;;;12.32;100.00;163786.50;4987001;28;20034;-56
2022/05/08 07:51:47;;;;;;;16.77;3.85;;;;;;;12.24;100.00;163763.53;4977015;28;20062;-56
2022/05/08 07:54:13;;;;;;;17.10;4.50;;;;;;;12.41;100.00;163808.13;4986952;28;20037;-56
2022/05/08 07:56:39;;;;;;;15.15;5.20;;;;;;;12.57;100.00;163851.38;4987984;28;20355;-56
2022/05/08 07:59:04;;;;;;;13.05;5.20;;;;;;;12.57;100.00;163851.38;4986727;28;20031;-56
2022/05/08 08:01:29;;;;;;;15.73;4.07;;;;;;;12.97;100.00;163956.81;4985912;28;20101;-56
2022/05/08 08:03:55;;;;;;;15.32;5.75;;;;;;;13.47;100.00;164088.03;4988301;28;20043;-56
2022/05/08 08:06:20;;;;;;;19.45;4.95;;;;;;;13.68;100.00;164140.72;4985523;28;20055;-56
2022/05/08 08:08:45;;;;;;;17.48;6.13;;;;;;;13.42;100.00;164074.47;4980446;28;20855;-56
2022/05/08 08:11:11;;;;;;;20.00;5.85;;;;;;;13.58;100.00;164115.03;4983558;28;20038;-56
2022/05/08 08:13:37;;;;;;;22.02;5.50;;;;;;;14.25;100.00;164292.25;4987257;28;20033;-56
2022/05/08 08:16:02;;;;;;;19.75;4.88;;;;;;;14.46;100.00;164346.34;4986843;28;20061;-56
2022/05/08 08:18:28;;;;;;;9.98;3.92;;;;;;;14.55;100.00;164369.34;4983649;28;20036;-56
2022/05/08 08:20:54;;;;;;;14.63;4.22;;;;;;;15.01;100.00;164491.19;4987342;28;20371;-56
2022/05/08 08:23:19;;;;;;;20.02;5.20;;;;;;;15.54;100.00;164630.59;4989392;28;20481;-56
2022/05/08 08:25:45;;;;;;;13.07;5.60;;;;;;;15.51;100.00;164622.50;4972460;28;20046;-56
2022/05/08 08:28:10;;;;;;;17.45;4.65;;;;;;;15.10;100.00;164512.84;4971262;28;20030;-56
2022/05/08 08:30:36;;;;;;;19.20;4.70;;;;;;;14.99;100.00;164485.75;4968599;28;20042;-56
2022/05/08 08:33:01;;;;;;;8.55;3.78;;;;;;;15.40;100.00;164592.69;4972554;28;20019;-56
2022/05/08 08:35:27;;;;;;;12.45;6.13;;;;;;;14.57;100.00;164376.09;4973816;28;20434;-56
2022/05/08 08:37:52;;;;;;;16.25;4.57;;;;;;;13.79;100.00;164171.84;4976674;28;20382;-56
2022/05/08 08:40:18;;;;;;;12.85;3.78;;;;;;;13.98;100.00;164219.16;4980780;28;20061;-56
2022/05/08 08:42:44;;;;;;;16.83;4.75;;;;;;;14.46;100.00;164346.34;4985690;28;20042;-56
2022/05/08 08:47:58;;;;;;;15.38;4.10;;;;;;;14.30;100.00;164304.38;4989484;28;20452;-56
2022/05/08 08:50:26;;;;;;;10.45;3.78;;;;;;;14.95;100.00;164473.56;4973858;28;20459;-56
2022/05/08 08:52:53;;;;;;;11.38;3.97;;;;;;;15.22;100.00;164545.31;4985091;28;20037;-56
2022/05/08 08:55:20;;;;;;;16.15;3.47;;;;;;;15.69;100.00;164669.88;4993828;28;20409;-56
2022/05/08 08:57:46;;;;;;;19.67;4.78;;;;;;;15.41;100.00;164595.41;4989549;28;20443;-56
2022/05/08 09:00:14;;;;;;;9.95;4.43;;;;;;;15.01;100.00;164491.19;4988661;28;20073;-57
2022/05/08 09:02:39;;;;;;;8.85;3.28;;;;;;;15.20;100.00;164541.28;4989143;28;20414;-56
2022/05/08 09:05:09;;;;;;;6.30;3.13;;;;;;;14.87;100.00;164453.31;4991141;28;20050;-56
2022/05/08 09:07:40;;;;;;;6.75;3.70;;;;;;;15.41;100.00;164595.41;4988200;28;20062;-56
2022/05/08 09:10:14;;;;;;;10.48;3.15;;;;;;;15.51;100.00;164622.50;4988973;28;20077;-56
2022/05/08 09:12:43;;;;;;;10.20;3.50;;;;;;;15.47;100.00;164610.31;4989369;28;20046;-56
2022/05/08 09:15:24;;;;;;;8.20;2.90;;;;;;;15.34;98.15;164576.47;4992453;28;20108;-56
2022/05/08 09:17:52;;;;;;;9.95;3.22;;;;;;;15.42;98.08;164596.75;4987082;28;20130;-56
2022/05/08 09:20:30;;;;;;;11.65;3.17;;;;;;;15.68;95.80;164665.78;4992729;28;20027;-56
2022/05/08 09:23:06;;;;;;;15.48;3.83;;;;;;;15.77;96.65;164690.16;4985622;28;20054;-56
2022/05/08 09:25:48;;;;;;;9.30;3.35;;;;;;;15.30;92.87;164566.97;4985763;28;20585;-56
2022/05/08 09:28:15;;;;;;;9.50;3.20;;;;;;;15.13;94.81;164522.31;4989691;28;20117;-56
2022/05/08 09:31:03;;;;;;;10.13;3.65;;;;;;;15.58;92.03;164638.75;4990638;28;20026;-57
2022/05/08 09:33:31;;;;;;;20.90;4.43;;;;;;;15.44;90.75;164603.56;4992244;28;20109;-56
2022/05/08 09:35:57;;;;;;;7.50;2.97;;;;;;;15.44;90.71;164603.56;4992373;28;20468;-56
2022/05/08 09:38:40;;;;;;;12.88;4.95;;;;;;;15.05;92.91;164502.00;4993308;28;20018;-56
2022/05/08 09:41:05;;;;;;;7.88;3.20;;;;;;;15.79;92.08;164694.22;4990871;28;20129;-56
2022/05/08 09:43:32;;;;;;;8.38;2.78;;;;;;;16.27;93.26;164821.59;4993232;28;20026;-56
2022/05/08 09:46:00;;;;;;;7.03;2.55;;;;;;;16.05;88.41;164763.31;4991646;28;20042;-56
2022/05/08 09:48:27;;;;;;;7.50;3.05;;;;;;;15.54;85.49;164630.59;4988278;28;20057;-56
2022/05/08 09:50:57;;;;;;;6.80;2.63;;;;;;;15.72;92.65;164676.66;4989123;28;20053;-56
2022/05/08 09:53:24;;;;;;;7.82;2.90;;;;;;;15.46;89.35;164608.94;4986517;28;20033;-57
2022/05/08 09:55:51;;;;;;;10.43;4.07;;;;;;;15.79;89.37;164695.59;4976724;28;20407;-56
2022/05/08 09:58:16;;;;;;;10.52;3.28;;;;;;;16.27;89.52;164820.25;4986912;28;20037;-57
2022/05/08 10:00:42;;;;;;;8.90;3.92;;;;;;;16.67;87.59;164925.88;4988043;28;20038;-57
2022/05/08 10:03:08;;;;;;;9.27;3.00;;;;;;;16.41;85.93;164858.19;4983918;28;20050;-56
2022/05/08 10:05:34;;;;;;;8.15;2.88;;;;;;;16.61;83.31;164910.97;4985703;28;20473;-57
2022/05/08 10:08:02;;;;;;;7.18;2.60;;;;;;;16.17;82.16;164795.88;4987945;28;20109;-57
2022/05/08 10:15:55;;;;;;;6.97;3.30;;;;;;;16.27;81.33;164820.25;4984204;28;20082;-57
2022/05/08 10:18:25;;;;;;;6.22;3.20;;;;;;;16.77;83.39;164953.00;4990106;28;20031;-56
2022/05/08 10:21:12;;;;;;;11.07;3.80;;;;;;;16.92;77.52;164990.94;4988313;28;20053;-56
2022/05/08 10:23:47;;;;;;;5.88;2.65;;;;;;;16.70;76.48;164932.66;4982465;28;20023;-56
2022/05/08 10:26:19;;;;;;;7.03;2.65;;;;;;;17.36;74.89;165107.50;4988034;28;20498;-57
2022/05/08 10:29:03;;;;;;;6.45;2.40;;;;;;;17.41;76.81;165121.03;4990387;28;20109;-57
2022/05/08 10:31:48;;;;;;;7.70;3.17;;;;;;;17.32;78.84;165096.63;4989188;28;20142;-56
2022/05/08 10:34:14;;;;;;;11.02;3.15;;;;;;;17.79;74.79;165218.63;4988851;28;20041;-57
2022/05/08 10:37:00;;;;;;;8.70;2.50;;;;;;;17.13;72.40;165047.88;4987321;28;20121;-56
2022/05/08 10:39:46;;;;;;;11.55;2.83;;;;;;;17.10;74.58;165039.72;4991282;28;20541;-56
2022/05/08 10:42:23;;;;;;;13.15;4.15;;;;;;;17.21;74.72;165066.84;4984595;28;20046;-57
2022/05/08 10:44:48;;;;;;;7.20;2.90;;;;;;;17.57;76.49;165161.72;4989700;28;20022;-57
2022/05/08 10:47:32;;;;;;;9.38;3.08;;;;;;;17.20;73.84;165064.13;4986540;28;20046;-57
2022/05/08 10:49:57;;;;;;;7.10;2.38;;;;;;;17.44;75.03;165129.19;4987024;28;20058;-57
2022/05/08 10:52:23;;;;;;;8.40;2.55;;;;;;;17.60;74.84;165171.19;4988737;28;20052;-57
2022/05/08 10:54:55;;;;;;;10.40;2.38;;;;;;;17.76;76.59;165213.19;4982578;28;20080;-57
2022/05/08 10:57:36;;;;;;;9.93;3.60;;;;;;;17.57;73.50;165161.72;4990293;28;20505;-57
2022/05/08 11:00:07;;;;;;;11.05;2.90;;;;;;;17.57;72.98;165161.72;4991343;28;20109;-57
2022/05/08 11:02:51;;;;;;;11.20;3.38;;;;;;;17.50;74.94;165142.72;4980505;28;20054;-57
2022/05/08 11:05:20;;;;;;;8.18;3.03;;;;;;;17.58;74.76;165165.75;4990691;28;20438;-57
2022/05/08 11:08:00;;;;;;;8.07;2.95;;;;;;;17.39;74.13;165115.59;4987084;28;20085;-57
2022/05/08 11:10:32;;;;;;;8.77;2.15;;;;;;;17.81;71.23;165224.06;4985494;28;20038;-57
2022/05/08 11:13:10;;;;;;;7.22;2.33;;;;;;;18.05;73.81;165289.22;4986973;28;20104;-57
2022/05/08 11:15:42;;;;;;;8.85;2.30;;;;;;;18.14;68.42;165310.84;4986454;28;20060;-57
2022/05/08 11:18:15;;;;;;;8.35;2.28;;;;;;;18.62;69.99;165438.34;4986124;28;20030;-57
2022/05/08 11:20:59;;;;;;;10.07;2.75;;;;;;;18.06;67.84;165291.88;4986890;28;20042;-57
2022/05/08 11:23:33;;;;;;;6.82;2.20;;;;;;;18.02;67.70;165281.06;4988725;28;20026;-57
2022/05/08 11:26:05;;;;;;;12.63;3.97;;;;;;;18.60;74.07;165432.91;4989742;28;20085;-57
2022/05/08 11:28:32;;;;;;;9.80;2.40;;;;;;;18.45;69.06;165393.59;4990318;28;20068;-57
2022/05/08 11:30:59;;;;;;;4.88;3.17;;;;;;;18.49;72.38;165403.09;4979823;28;20073;-57
2022/05/08 11:36:27;;;;;;;6.45;2.40;;;;;;;18.64;68.32;165443.78;4984880;28;20053;-57
2022/05/08 11:38:56;;;;;;;17.83;3.30;;;;;;;18.71;67.76;165462.75;4979932;28;20022;-57
2022/05/08 11:41:42;;;;;;;9.32;2.95;;;;;;;18.75;66.10;165470.88;4990092;28;20049;-57
2022/05/08 11:44:13;;;;;;;5.20;3.10;;;;;;;18.81;69.48;165487.13;4988010;28;20026;-57
2022/05/08 11:46:44;;;;;;;10.60;3.30;;;;;;;18.89;65.92;165508.84;4988873;28;20050;-57